首页
METAR-TAF:

METAR-TAF

机场 :

霍尼亞拉國際機場

霍尼亚拉, 瓜达尔卡纳尔岛, 所罗门群岛

纬度: 09-25S, 经度: 160-03E, 海拔: 8米

当前天气观测

该预报发布于32分钟前的21:00 UTC
静风
温度 26°C
湿度 94%
气压 1009 hPa
能见度10公里或以上
少量云层高于1600英尺
少量云层高于1700英尺, 积雨云.
散云层高于3500英尺
多云层高于30000英尺

METAR: AGGH 182100Z 00000KT 9999 FEW016 FEW017CB SCT035 BKN300 26/25 Q1009

时间: 08:32 (21:32 UTC)

预报

该预报发布于4小时和22分钟前的17:10 UTC
预报有效从18日的 18点(UTC)到 19日的 18点(UTC)
风速12节,风向
能见度10公里或以上
少量云层高于1700英尺
散云层高于2600英尺
多云层高于10000英尺
小阵雨
几率 40%
在之间 IN和TE点(UTC)
能見度: 1007
多云层高于1500英尺
少量云层高于1600英尺, 积雨云.

TAF: AGGH 181710Z 1818/1918 09012KT 9999 -SHRA FEW017 SCT026 BKN100 PROB40 INTER 1818/1906 3000 TSSH BKN015 FEW016CB T 23 26 31 32 Q 1007 1009 1009 1007

超过4000个机场的气象观测和天气预报(METAR&TAF报告)。

可查询的气象台以黄色和红色小点在地图上表示。

将鼠标移到小点上方,可查看气象台名称。

然后点击查看天气观测和预报。

如需切换地图:点击带黑十字的绿色按钮放大地图;点击带横线的绿色按钮缩小地图;或者点击绿色箭头查看邻近地区的地图。


METAR-TAF: